sensor_id;sensor_type;location;lat;lon;timestamp;pressure;altitude;pressure_sealevel;temperature;humidity
73455;BME280;61690;51.824;6.306;2023-05-17T00:01:43;102314.75;;;18.77;48.31
73455;BME280;61690;51.824;6.306;2023-05-17T00:04:09;102324.41;;;18.77;48.16
73455;BME280;61690;51.824;6.306;2023-05-17T00:06:34;102327.97;;;18.76;47.98
73455;BME280;61690;51.824;6.306;2023-05-17T00:09:00;102322.81;;;18.73;48.41
73455;BME280;61690;51.824;6.306;2023-05-17T00:11:26;102328.03;;;18.74;48.21
73455;BME280;61690;51.824;6.306;2023-05-17T00:13:51;102334.31;;;18.72;48.27
73455;BME280;61690;51.824;6.306;2023-05-17T00:16:17;102329.94;;;18.71;48.11
73455;BME280;61690;51.824;6.306;2023-05-17T00:18:42;102326.47;;;18.70;48.43
73455;BME280;61690;51.824;6.306;2023-05-17T00:21:07;102325.69;;;18.68;48.41
73455;BME280;61690;51.824;6.306;2023-05-17T00:23:33;102332.66;;;18.69;48.16
73455;BME280;61690;51.824;6.306;2023-05-17T00:25:59;102328.44;;;18.65;48.27
73455;BME280;61690;51.824;6.306;2023-05-17T00:28:24;102324.22;;;18.61;48.52
73455;BME280;61690;51.824;6.306;2023-05-17T00:30:50;102327.66;;;18.63;48.12
73455;BME280;61690;51.824;6.306;2023-05-17T00:33:16;102323.38;;;18.60;48.39
73455;BME280;61690;51.824;6.306;2023-05-17T00:35:41;102319.06;;;18.58;48.06
73455;BME280;61690;51.824;6.306;2023-05-17T00:38:07;102319.22;;;18.55;48.85
73455;BME280;61690;51.824;6.306;2023-05-17T00:40:32;102321.06;;;18.53;48.51
73455;BME280;61690;51.824;6.306;2023-05-17T00:42:59;102325.44;;;18.52;48.34
73455;BME280;61690;51.824;6.306;2023-05-17T00:45:25;102328.91;;;18.54;48.66
73455;BME280;61690;51.824;6.306;2023-05-17T00:47:50;102329.88;;;18.52;48.37
73455;BME280;61690;51.824;6.306;2023-05-17T00:50:16;102324.59;;;18.52;48.31
73455;BME280;61690;51.824;6.306;2023-05-17T00:52:41;102324.59;;;18.52;48.83
73455;BME280;61690;51.824;6.306;2023-05-17T00:55:07;102308.94;;;18.49;48.36
73455;BME280;61690;51.824;6.306;2023-05-17T00:57:32;102318.53;;;18.50;48.61
73455;BME280;61690;51.824;6.306;2023-05-17T00:59:58;102324.88;;;18.46;48.56
73455;BME280;61690;51.824;6.306;2023-05-17T01:02:23;102318.69;;;18.47;48.45
73455;BME280;61690;51.824;6.306;2023-05-17T01:04:49;102322.13;;;18.49;48.77
73455;BME280;61690;51.824;6.306;2023-05-17T01:07:15;102322.28;;;18.44;48.78
73455;BME280;61690;51.824;6.306;2023-05-17T01:09:44;102320.50;;;18.45;48.57
73455;BME280;61690;51.824;6.306;2023-05-17T01:12:25;102314.34;;;18.46;48.26
73455;BME280;61690;51.824;6.306;2023-05-17T01:15:04;102317.97;;;18.43;48.63
73455;BME280;61690;51.824;6.306;2023-05-17T01:17:53;102317.09;;;18.42;48.53
73455;BME280;61690;51.824;6.306;2023-05-17T01:20:30;102319.72;;;18.42;48.63
73455;BME280;61690;51.824;6.306;2023-05-17T01:23:09;102312.81;;;18.40;48.55
73455;BME280;61690;51.824;6.306;2023-05-17T01:25:49;102303.22;;;18.39;48.86
73455;BME280;61690;51.824;6.306;2023-05-17T01:28:19;102311.13;;;18.39;48.63
73455;BME280;61690;51.824;6.306;2023-05-17T01:30:49;102307.59;;;18.38;48.61
73455;BME280;61690;51.824;6.306;2023-05-17T01:33:15;102315.56;;;18.37;48.90
73455;BME280;61690;51.824;6.306;2023-05-17T01:35:42;102314.72;;;18.36;49.01
73455;BME280;61690;51.824;6.306;2023-05-17T01:38:07;102313.00;;;18.35;48.84
73455;BME280;61690;51.824;6.306;2023-05-17T01:40:34;102308.66;;;18.34;48.84
73455;BME280;61690;51.824;6.306;2023-05-17T01:43:11;102312.13;;;18.35;48.62
73455;BME280;61690;51.824;6.306;2023-05-17T01:45:43;102313.06;;;18.34;48.55
73455;BME280;61690;51.824;6.306;2023-05-17T01:48:22;102313.97;;;18.33;48.49
73455;BME280;61690;51.824;6.306;2023-05-17T01:50:53;102312.34;;;18.30;48.69
73455;BME280;61690;51.824;6.306;2023-05-17T01:53:38;102314.03;;;18.31;48.64
73455;BME280;61690;51.824;6.306;2023-05-17T01:56:15;102311.41;;;18.31;48.64
73455;BME280;61690;51.824;6.306;2023-05-17T01:58:46;102323.78;;;18.29;48.65
73455;BME280;61690;51.824;6.306;2023-05-17T02:01:15;102322.03;;;18.30;48.45
73455;BME280;61690;51.824;6.306;2023-05-17T02:03:40;102319.47;;;18.28;49.00
73455;BME280;61690;51.824;6.306;2023-05-17T02:06:08;102324.72;;;18.28;48.61
73455;BME280;61690;51.824;6.306;2023-05-17T02:08:33;102316.81;;;18.28;48.88
73455;BME280;61690;51.824;6.306;2023-05-17T02:10:58;102316.81;;;18.28;48.78
73455;BME280;61690;51.824;6.306;2023-05-17T02:13:25;102318.59;;;18.28;48.64
73455;BME280;61690;51.824;6.306;2023-05-17T02:15:50;102317.81;;;18.26;48.63
73455;BME280;61690;51.824;6.306;2023-05-17T02:18:15;102318.66;;;18.26;48.46
73455;BME280;61690;51.824;6.306;2023-05-17T02:20:41;102326.63;;;18.25;48.75
73455;BME280;61690;51.824;6.306;2023-05-17T02:23:06;102329.25;;;18.25;48.89
73455;BME280;61690;51.824;6.306;2023-05-17T02:25:32;102330.16;;;18.23;48.49
73455;BME280;61690;51.824;6.306;2023-05-17T02:27:57;102332.88;;;18.22;48.67
73455;BME280;61690;51.824;6.306;2023-05-17T02:30:22;102332.88;;;18.22;48.67
73455;BME280;61690;51.824;6.306;2023-05-17T02:32:50;102330.25;;;18.22;48.73
73455;BME280;61690;51.824;6.306;2023-05-17T02:35:16;102331.16;;;18.21;48.40
73455;BME280;61690;51.824;6.306;2023-05-17T02:37:41;102328.56;;;18.19;48.72
73455;BME280;61690;51.824;6.306;2023-05-17T02:40:07;102337.34;;;18.20;48.83
73455;BME280;61690;51.824;6.306;2023-05-17T02:42:34;102333.00;;;18.19;48.87
73455;BME280;61690;51.824;6.306;2023-05-17T02:45:00;102343.47;;;18.20;48.66
73455;BME280;61690;51.824;6.306;2023-05-17T02:47:25;102336.56;;;18.18;48.92
73455;BME280;61690;51.824;6.306;2023-05-17T02:49:50;102344.47;;;18.18;48.74
73455;BME280;61690;51.824;6.306;2023-05-17T02:52:16;102338.38;;;18.16;48.50
73455;BME280;61690;51.824;6.306;2023-05-17T02:54:41;102347.16;;;18.16;48.84
73455;BME280;61690;51.824;6.306;2023-05-17T02:57:08;102346.28;;;18.16;48.85
73455;BME280;61690;51.824;6.306;2023-05-17T02:59:34;102346.28;;;18.16;48.83
73455;BME280;61690;51.824;6.306;2023-05-17T03:02:00;102354.19;;;18.16;48.67
73455;BME280;61690;51.824;6.306;2023-05-17T03:04:26;102356.00;;;18.14;49.08
73455;BME280;61690;51.824;6.306;2023-05-17T03:06:51;102362.16;;;18.14;49.26
73455;BME280;61690;51.824;6.306;2023-05-17T03:09:16;102366.56;;;18.14;48.84
73455;BME280;61690;51.824;6.306;2023-05-17T03:11:42;102356.00;;;18.14;48.96
73455;BME280;61690;51.824;6.306;2023-05-17T03:14:07;102360.44;;;18.13;48.81
73455;BME280;61690;51.824;6.306;2023-05-17T03:16:32;102365.69;;;18.13;49.00
73455;BME280;61690;51.824;6.306;2023-05-17T03:18:58;102381.50;;;18.13;48.78
73455;BME280;61690;51.824;6.306;2023-05-17T03:21:26;102375.38;;;18.13;48.89
73455;BME280;61690;51.824;6.306;2023-05-17T03:23:51;102376.38;;;18.10;48.97
73455;BME280;61690;51.824;6.306;2023-05-17T03:26:16;102388.66;;;18.10;48.72
73455;BME280;61690;51.824;6.306;2023-05-17T03:28:45;102386.81;;;18.12;48.82
73455;BME280;61690;51.824;6.306;2023-05-17T03:31:10;102385.13;;;18.11;48.59
73455;BME280;61690;51.824;6.306;2023-05-17T03:33:36;102387.81;;;18.09;48.83
73455;BME280;61690;51.824;6.306;2023-05-17T03:36:01;102394.88;;;18.09;48.67
73455;BME280;61690;51.824;6.306;2023-05-17T03:38:27;102400.97;;;18.09;48.96
73455;BME280;61690;51.824;6.306;2023-05-17T03:40:54;102409.72;;;18.10;48.59
73455;BME280;61690;51.824;6.306;2023-05-17T03:43:19;102406.25;;;18.09;48.98
73455;BME280;61690;51.824;6.306;2023-05-17T03:45:44;102407.97;;;18.10;48.66
73455;BME280;61690;51.824;6.306;2023-05-17T03:48:10;102403.66;;;18.08;49.09
73455;BME280;61690;51.824;6.306;2023-05-17T03:50:35;102401.03;;;18.08;48.76
73455;BME280;61690;51.824;6.306;2023-05-17T03:53:01;102405.50;;;18.06;49.05
73455;BME280;61690;51.824;6.306;2023-05-17T03:55:29;102411.72;;;18.05;48.88
73455;BME280;61690;51.824;6.306;2023-05-17T03:57:54;102408.94;;;18.08;49.00
73455;BME280;61690;51.824;6.306;2023-05-17T04:00:20;102408.03;;;18.09;48.96
73455;BME280;61690;51.824;6.306;2023-05-17T04:02:50;102411.56;;;18.08;48.69
73455;BME280;61690;51.824;6.306;2023-05-17T04:05:16;102411.63;;;18.06;49.09
73455;BME280;61690;51.824;6.306;2023-05-17T04:07:42;102418.63;;;18.07;48.63
73455;BME280;61690;51.824;6.306;2023-05-17T04:10:08;102412.50;;;18.07;48.47
73455;BME280;61690;51.824;6.306;2023-05-17T04:12:33;102416.03;;;18.06;49.00
73455;BME280;61690;51.824;6.306;2023-05-17T04:17:27;102419.47;;;18.08;48.73
73455;BME280;61690;51.824;6.306;2023-05-17T04:19:52;102426.56;;;18.06;48.69
73455;BME280;61690;51.824;6.306;2023-05-17T04:22:19;102426.47;;;18.09;48.89
73455;BME280;61690;51.824;6.306;2023-05-17T04:24:44;102426.47;;;18.09;48.68
73455;BME280;61690;51.824;6.306;2023-05-17T04:27:13;102428.22;;;18.08;48.74
73455;BME280;61690;51.824;6.306;2023-05-17T04:29:38;102429.91;;;18.11;48.70
73455;BME280;61690;51.824;6.306;2023-05-17T04:32:05;102443.16;;;18.08;49.15
73455;BME280;61690;51.824;6.306;2023-05-17T04:34:31;102446.66;;;18.08;49.07
73455;BME280;61690;51.824;6.306;2023-05-17T04:36:57;102439.50;;;18.12;48.95
73455;BME280;61690;51.824;6.306;2023-05-17T04:39:22;102443.13;;;18.09;48.95
73455;BME280;61690;51.824;6.306;2023-05-17T04:41:51;102448.44;;;18.08;49.14
73455;BME280;61690;51.824;6.306;2023-05-17T04:44:17;102455.44;;;18.09;49.48
73455;BME280;61690;51.824;6.306;2023-05-17T04:46:43;102456.34;;;18.08;49.17
73455;BME280;61690;51.824;6.306;2023-05-17T04:49:09;102463.28;;;18.10;49.27
73455;BME280;61690;51.824;6.306;2023-05-17T04:51:35;102461.50;;;18.11;48.90
73455;BME280;61690;51.824;6.306;2023-05-17T04:54:01;102464.13;;;18.11;49.32
73455;BME280;61690;51.824;6.306;2023-05-17T04:56:27;102470.19;;;18.13;49.31
73455;BME280;61690;51.824;6.306;2023-05-17T04:58:53;102478.94;;;18.13;49.29
73455;BME280;61690;51.824;6.306;2023-05-17T05:01:19;102483.38;;;18.13;49.34
73455;BME280;61690;51.824;6.306;2023-05-17T05:03:44;102475.47;;;18.13;49.09
73455;BME280;61690;51.824;6.306;2023-05-17T05:06:09;102482.44;;;18.14;48.91
73455;BME280;61690;51.824;6.306;2023-05-17T05:08:37;102479.94;;;18.11;49.26
73455;BME280;61690;51.824;6.306;2023-05-17T05:11:03;102480.72;;;18.13;49.24
73455;BME280;61690;51.824;6.306;2023-05-17T05:13:28;102486.91;;;18.12;49.29
73455;BME280;61690;51.824;6.306;2023-05-17T05:15:54;102492.06;;;18.15;49.12
73455;BME280;61690;51.824;6.306;2023-05-17T05:18:19;102497.38;;;18.13;49.12
73455;BME280;61690;51.824;6.306;2023-05-17T05:20:47;102501.78;;;18.13;49.06
73455;BME280;61690;51.824;6.306;2023-05-17T05:23:13;102497.38;;;18.13;49.39
73455;BME280;61690;51.824;6.306;2023-05-17T05:25:39;102496.41;;;18.16;49.07
73455;BME280;61690;51.824;6.306;2023-05-17T05:28:04;102496.41;;;18.16;49.50
73455;BME280;61690;51.824;6.306;2023-05-17T05:30:32;102500.81;;;18.15;49.34
73455;BME280;61690;51.824;6.306;2023-05-17T05:32:57;102498.03;;;18.20;49.31
73455;BME280;61690;51.824;6.306;2023-05-17T05:35:22;102506.81;;;18.19;49.45
73455;BME280;61690;51.824;6.306;2023-05-17T05:37:57;102509.47;;;18.19;49.19
73455;BME280;61690;51.824;6.306;2023-05-17T05:40:24;102512.00;;;18.22;48.96
73455;BME280;61690;51.824;6.306;2023-05-17T05:42:49;102518.09;;;18.22;49.05
73455;BME280;61690;51.824;6.306;2023-05-17T05:45:16;102514.53;;;18.23;49.35
73455;BME280;61690;51.824;6.306;2023-05-17T05:47:42;102520.34;;;18.33;49.76
73455;BME280;61690;51.824;6.306;2023-05-17T05:50:08;102522.88;;;18.35;49.85
73455;BME280;61690;51.824;6.306;2023-05-17T05:52:33;102522.03;;;18.34;49.86
73455;BME280;61690;51.824;6.306;2023-05-17T05:54:59;102530.75;;;18.36;49.70
73455;BME280;61690;51.824;6.306;2023-05-17T05:57:25;102530.75;;;18.36;49.67
73455;BME280;61690;51.824;6.306;2023-05-17T05:59:50;102542.13;;;18.37;49.75
73455;BME280;61690;51.824;6.306;2023-05-17T06:02:16;102540.38;;;18.37;49.69
73455;BME280;61690;51.824;6.306;2023-05-17T06:04:42;102549.06;;;18.39;49.66
73455;BME280;61690;51.824;6.306;2023-05-17T06:07:07;102548.16;;;18.40;49.83
73455;BME280;61690;51.824;6.306;2023-05-17T06:09:34;102554.28;;;18.41;49.69
73455;BME280;61690;51.824;6.306;2023-05-17T06:11:59;102547.19;;;18.43;49.73
73455;BME280;61690;51.824;6.306;2023-05-17T06:14:25;102550.72;;;18.42;49.73
73455;BME280;61690;51.824;6.306;2023-05-17T06:16:51;102546.31;;;18.42;49.58
73455;BME280;61690;51.824;6.306;2023-05-17T06:19:17;102552.38;;;18.45;49.26
73455;BME280;61690;51.824;6.306;2023-05-17T06:21:44;102560.28;;;18.45;49.25
73455;BME280;61690;51.824;6.306;2023-05-17T06:24:09;102563.78;;;18.45;49.72
73455;BME280;61690;51.824;6.306;2023-05-17T06:26:34;102567.16;;;18.49;49.07
73455;BME280;61690;51.824;6.306;2023-05-17T06:29:01;102568.06;;;18.48;49.36
73455;BME280;61690;51.824;6.306;2023-05-17T06:31:26;102568.03;;;18.49;49.16
73455;BME280;61690;51.824;6.306;2023-05-17T06:33:51;102578.38;;;18.54;49.64
73455;BME280;61690;51.824;6.306;2023-05-17T06:36:17;102578.13;;;18.60;49.25
73455;BME280;61690;51.824;6.306;2023-05-17T06:38:42;102582.50;;;18.61;49.12
73455;BME280;61690;51.824;6.306;2023-05-17T06:41:07;102580.78;;;18.60;48.99
73455;BME280;61690;51.824;6.306;2023-05-17T06:43:33;102585.94;;;18.63;49.42
73455;BME280;61690;51.824;6.306;2023-05-17T06:45:58;102581.41;;;18.67;48.77
73455;BME280;61690;51.824;6.306;2023-05-17T06:48:23;102590.31;;;18.64;49.02
73455;BME280;61690;51.824;6.306;2023-05-17T06:50:49;102590.22;;;18.66;48.72
73455;BME280;61690;51.824;6.306;2023-05-17T06:53:14;102586.72;;;18.65;48.95
73455;BME280;61690;51.824;6.306;2023-05-17T06:55:39;102580.56;;;18.66;48.54
73455;BME280;61690;51.824;6.306;2023-05-17T06:58:05;102589.25;;;18.68;48.60
73455;BME280;61690;51.824;6.306;2023-05-17T07:00:31;102584.88;;;18.67;48.56
73455;BME280;61690;51.824;6.306;2023-05-17T07:02:56;102584.94;;;18.66;48.80
73455;BME280;61690;51.824;6.306;2023-05-17T07:05:23;102587.66;;;18.64;48.75
73455;BME280;61690;51.824;6.306;2023-05-17T07:07:48;102581.47;;;18.65;48.46
73455;BME280;61690;51.824;6.306;2023-05-17T07:10:14;102579.31;;;18.75;49.10
73455;BME280;61690;51.824;6.306;2023-05-17T07:12:40;102586.16;;;18.80;48.62
73455;BME280;61690;51.824;6.306;2023-05-17T07:15:05;102597.44;;;18.84;48.67
73455;BME280;61690;51.824;6.306;2023-05-17T07:17:32;102603.47;;;18.88;48.95
73455;BME280;61690;51.824;6.306;2023-05-17T07:19:57;102597.25;;;18.89;48.64
73455;BME280;61690;51.824;6.306;2023-05-17T07:22:23;102601.50;;;18.93;48.31
73455;BME280;61690;51.824;6.306;2023-05-17T07:24:48;102604.00;;;18.96;48.44
73455;BME280;61690;51.824;6.306;2023-05-17T07:27:14;102602.16;;;18.98;48.47
73455;BME280;61690;51.824;6.306;2023-05-17T07:29:41;102606.41;;;19.02;48.51
73455;BME280;61690;51.824;6.306;2023-05-17T07:32:07;102609.03;;;19.02;48.30
73455;BME280;61690;51.824;6.306;2023-05-17T07:34:34;102610.66;;;19.06;48.77
73455;BME280;61690;51.824;6.306;2023-05-17T07:36:59;102600.91;;;19.08;48.46
73455;BME280;61690;51.824;6.306;2023-05-17T07:39:25;102613.16;;;19.09;48.76
73455;BME280;61690;51.824;6.306;2023-05-17T07:41:50;102613.94;;;19.11;48.41
73455;BME280;61690;51.824;6.306;2023-05-17T07:44:15;102622.53;;;19.16;48.79
73455;BME280;61690;51.824;6.306;2023-05-17T07:46:41;102617.22;;;19.18;48.33
73455;BME280;61690;51.824;6.306;2023-05-17T07:49:06;102626.97;;;19.16;48.25
73455;BME280;61690;51.824;6.306;2023-05-17T07:51:31;102628.66;;;19.17;48.70
73455;BME280;61690;51.824;6.306;2023-05-17T07:53:57;102636.53;;;19.18;48.26
73455;BME280;61690;51.824;6.306;2023-05-17T07:56:22;102632.97;;;19.19;48.45
73455;BME280;61690;51.824;6.306;2023-05-17T07:58:47;102632.16;;;19.17;48.19
73455;BME280;61690;51.824;6.306;2023-05-17T08:01:13;102638.41;;;19.15;48.39
73455;BME280;61690;51.824;6.306;2023-05-17T08:03:38;102642.97;;;19.11;48.44
73455;BME280;61690;51.824;6.306;2023-05-17T08:06:11;102639.47;;;19.11;48.49
73455;BME280;61690;51.824;6.306;2023-05-17T08:08:36;102638.63;;;19.10;48.48
73455;BME280;61690;51.824;6.306;2023-05-17T08:11:02;102638.31;;;19.18;48.28
73455;BME280;61690;51.824;6.306;2023-05-17T08:13:27;102646.81;;;19.25;47.93
73455;BME280;61690;51.824;6.306;2023-05-17T08:15:52;102644.25;;;19.23;47.82
73455;BME280;61690;51.824;6.306;2023-05-17T08:18:18;102642.47;;;19.24;47.60
73455;BME280;61690;51.824;6.306;2023-05-17T08:20:43;102645.84;;;19.27;48.27
73455;BME280;61690;51.824;6.306;2023-05-17T08:23:09;102648.41;;;19.29;47.70
73455;BME280;61690;51.824;6.306;2023-05-17T08:25:35;102649.34;;;19.28;47.90
73455;BME280;61690;51.824;6.306;2023-05-17T08:28:03;102651.19;;;19.26;47.73
73455;BME280;61690;51.824;6.306;2023-05-17T08:30:29;102646.03;;;19.23;47.94
73455;BME280;61690;51.824;6.306;2023-05-17T08:32:54;102642.47;;;19.24;47.92
73455;BME280;61690;51.824;6.306;2023-05-17T08:35:20;102643.38;;;19.23;47.86
73455;BME280;61690;51.824;6.306;2023-05-17T08:37:46;102647.03;;;19.20;47.96
73455;BME280;61690;51.824;6.306;2023-05-17T08:40:12;102653.16;;;19.20;47.86
73455;BME280;61690;51.824;6.306;2023-05-17T08:42:40;102647.06;;;19.18;47.87
73455;BME280;61690;51.824;6.306;2023-05-17T08:45:06;102647.97;;;19.17;48.00
73455;BME280;61690;51.824;6.306;2023-05-17T08:47:34;102650.63;;;19.17;47.93
73455;BME280;61690;51.824;6.306;2023-05-17T08:50:03;102659.34;;;19.19;47.45
73455;BME280;61690;51.824;6.306;2023-05-17T08:52:30;102659.34;;;19.19;47.97
73455;BME280;61690;51.824;6.306;2023-05-17T08:54:59;102661.13;;;19.19;47.65
73455;BME280;61690;51.824;6.306;2023-05-17T08:57:29;102661.16;;;19.17;47.40
73455;BME280;61690;51.824;6.306;2023-05-17T08:59:57;102666.44;;;19.17;47.83
73455;BME280;61690;51.824;6.306;2023-05-17T09:02:23;102666.34;;;19.20;47.41
73455;BME280;61690;51.824;6.306;2023-05-17T09:04:50;102668.06;;;19.22;47.42
73455;BME280;61690;51.824;6.306;2023-05-17T09:07:19;102669.91;;;19.19;47.34
73455;BME280;61690;51.824;6.306;2023-05-17T09:09:45;102671.63;;;19.20;47.49
73455;BME280;61690;51.824;6.306;2023-05-17T09:12:11;102668.19;;;19.18;47.54
73455;BME280;61690;51.824;6.306;2023-05-17T09:14:37;102666.34;;;19.20;47.26
73455;BME280;61690;51.824;6.306;2023-05-17T09:17:02;102666.34;;;19.20;47.36
73455;BME280;61690;51.824;6.306;2023-05-17T09:19:29;102666.28;;;19.22;47.23
73455;BME280;61690;51.824;6.306;2023-05-17T09:21:54;102660.22;;;19.20;47.19
73455;BME280;61690;51.824;6.306;2023-05-17T09:24:27;102674.19;;;19.22;47.29
73455;BME280;61690;51.824;6.306;2023-05-17T09:27:04;102662.78;;;19.22;47.46
73455;BME280;61690;51.824;6.306;2023-05-17T09:29:32;102669.78;;;19.23;47.34
73455;BME280;61690;51.824;6.306;2023-05-17T09:32:14;102667.19;;;19.21;47.15
73455;BME280;61690;51.824;6.306;2023-05-17T09:34:44;102659.22;;;19.23;47.14
73455;BME280;61690;51.824;6.306;2023-05-17T09:37:17;102667.19;;;19.21;46.83
73455;BME280;61690;51.824;6.306;2023-05-17T09:39:45;102668.91;;;19.22;47.11
73455;BME280;61690;51.824;6.306;2023-05-17T09:42:12;102664.50;;;19.23;47.03
73455;BME280;61690;51.824;6.306;2023-05-17T09:44:57;102663.59;;;19.24;47.08
73455;BME280;61690;51.824;6.306;2023-05-17T09:47:28;102666.22;;;19.24;46.79
73455;BME280;61690;51.824;6.306;2023-05-17T09:49:58;102663.66;;;19.22;46.88
73455;BME280;61690;51.824;6.306;2023-05-17T09:52:26;102661.84;;;19.23;47.15
73455;BME280;61690;51.824;6.306;2023-05-17T09:54:59;102666.22;;;19.24;47.10
73455;BME280;61690;51.824;6.306;2023-05-17T09:57:27;102661.91;;;19.21;46.80
73455;BME280;61690;51.824;6.306;2023-05-17T09:59:54;102666.22;;;19.24;46.99
73455;BME280;61690;51.824;6.306;2023-05-17T10:02:31;102666.22;;;19.24;46.83
73455;BME280;61690;51.824;6.306;2023-05-17T10:04:58;102668.88;;;19.24;46.83
73455;BME280;61690;51.824;6.306;2023-05-17T10:07:36;102670.75;;;19.20;46.66
73455;BME280;61690;51.824;6.306;2023-05-17T10:10:03;102666.22;;;19.24;46.93
73455;BME280;61690;51.824;6.306;2023-05-17T10:12:32;102666.13;;;19.25;46.71
73455;BME280;61690;51.824;6.306;2023-05-17T10:15:00;102675.00;;;19.24;46.67
73455;BME280;61690;51.824;6.306;2023-05-17T10:17:26;102660.06;;;19.23;46.65
73455;BME280;61690;51.824;6.306;2023-05-17T10:19:56;102660.94;;;19.24;47.05
73455;BME280;61690;51.824;6.306;2023-05-17T10:22:22;102659.09;;;19.26;46.90
73455;BME280;61690;51.824;6.306;2023-05-17T10:24:48;102668.78;;;19.25;46.47
73455;BME280;61690;51.824;6.306;2023-05-17T10:27:16;102674.94;;;19.26;46.44
73455;BME280;61690;51.824;6.306;2023-05-17T10:29:43;102674.88;;;19.27;46.66
73455;BME280;61690;51.824;6.306;2023-05-17T10:32:12;102668.72;;;19.27;46.50
73455;BME280;61690;51.824;6.306;2023-05-17T10:34:38;102664.38;;;19.26;46.53
73455;BME280;61690;51.824;6.306;2023-05-17T10:37:04;102673.22;;;19.25;46.50
73455;BME280;61690;51.824;6.306;2023-05-17T10:39:31;102675.84;;;19.25;46.87
73455;BME280;61690;51.824;6.306;2023-05-17T10:42:00;102661.53;;;19.30;46.48
73455;BME280;61690;51.824;6.306;2023-05-17T10:44:33;102672.53;;;19.42;46.92
73455;BME280;61690;51.824;6.306;2023-05-17T10:46:58;102666.94;;;19.49;46.91
73455;BME280;61690;51.824;6.306;2023-05-17T10:49:32;102659.63;;;19.56;47.23
73455;BME280;61690;51.824;6.306;2023-05-17T10:52:10;102656.91;;;19.57;47.19
73455;BME280;61690;51.824;6.306;2023-05-17T10:54:39;102662.88;;;19.63;47.05
73455;BME280;61690;51.824;6.306;2023-05-17T10:57:06;102659.16;;;19.67;47.17
73455;BME280;61690;51.824;6.306;2023-05-17T10:59:31;102659.06;;;19.70;47.11
73455;BME280;61690;51.824;6.306;2023-05-17T11:02:22;102651.00;;;19.73;47.36
73455;BME280;61690;51.824;6.306;2023-05-17T11:04:50;102649.16;;;19.75;47.11
73455;BME280;61690;51.824;6.306;2023-05-17T11:07:28;102652.69;;;19.75;47.45
73455;BME280;61690;51.824;6.306;2023-05-17T11:15:03;102641.00;;;19.81;46.85
73455;BME280;61690;51.824;6.306;2023-05-17T11:17:55;102644.44;;;19.83;46.67
73455;BME280;61690;51.824;6.306;2023-05-17T11:23:05;102631.03;;;19.88;46.87
73455;BME280;61690;51.824;6.306;2023-05-17T11:25:38;102634.44;;;19.90;46.46
73455;BME280;61690;51.824;6.306;2023-05-17T11:28:12;102638.75;;;19.92;46.21
73455;BME280;61690;51.824;6.306;2023-05-17T11:30:45;102644.91;;;19.93;46.31
73455;BME280;61690;51.824;6.306;2023-05-17T11:33:17;102639.69;;;19.91;46.30
73455;BME280;61690;51.824;6.306;2023-05-17T11:35:45;102636.13;;;19.92;46.70
73455;BME280;61690;51.824;6.306;2023-05-17T11:38:19;102646.81;;;19.89;46.65
73455;BME280;61690;51.824;6.306;2023-05-17T11:40:54;102646.03;;;19.87;46.63
73455;BME280;61690;51.824;6.306;2023-05-17T11:43:24;102646.06;;;19.86;46.79
73455;BME280;61690;51.824;6.306;2023-05-17T11:45:53;102646.13;;;19.84;46.54
73455;BME280;61690;51.824;6.306;2023-05-17T11:48:20;102640.84;;;19.84;46.51
73455;BME280;61690;51.824;6.306;2023-05-17T11:50:47;102644.44;;;19.83;46.58
73455;BME280;61690;51.824;6.306;2023-05-17T11:53:18;102649.72;;;19.83;46.47
73455;BME280;61690;51.824;6.306;2023-05-17T11:55:48;102649.78;;;19.82;46.36
73455;BME280;61690;51.824;6.306;2023-05-17T11:58:19;102644.44;;;19.83;46.21
73455;BME280;61690;51.824;6.306;2023-05-17T12:00:51;102646.19;;;19.83;46.21
73455;BME280;61690;51.824;6.306;2023-05-17T12:03:18;102644.50;;;19.82;46.31
73455;BME280;61690;51.824;6.306;2023-05-17T12:05:47;102649.00;;;19.80;46.17
73455;BME280;61690;51.824;6.306;2023-05-17T12:08:18;102652.47;;;19.80;45.92
73455;BME280;61690;51.824;6.306;2023-05-17T12:10:50;102645.41;;;19.81;45.74
73455;BME280;61690;51.824;6.306;2023-05-17T12:13:20;102641.97;;;19.78;45.73
73455;BME280;61690;51.824;6.306;2023-05-17T12:16:08;102633.25;;;19.76;45.69
73455;BME280;61690;51.824;6.306;2023-05-17T12:18:37;102639.34;;;19.78;45.72
73455;BME280;61690;51.824;6.306;2023-05-17T12:21:05;102635.84;;;19.78;45.70
73455;BME280;61690;51.824;6.306;2023-05-17T12:23:40;102637.69;;;19.76;45.66
73455;BME280;61690;51.824;6.306;2023-05-17T12:26:08;102636.69;;;19.78;45.54
73455;BME280;61690;51.824;6.306;2023-05-17T12:28:38;102642.84;;;19.79;45.38
73455;BME280;61690;51.824;6.306;2023-05-17T12:31:09;102642.13;;;19.75;45.23
73455;BME280;61690;51.824;6.306;2023-05-17T12:33:37;102644.69;;;19.77;45.22
73455;BME280;61690;51.824;6.306;2023-05-17T12:36:09;102637.56;;;19.79;45.03
73455;BME280;61690;51.824;6.306;2023-05-17T12:38:38;102642.84;;;19.79;45.11
73455;BME280;61690;51.824;6.306;2023-05-17T12:41:06;102642.91;;;19.77;45.05
73455;BME280;61690;51.824;6.306;2023-05-17T12:43:34;102637.56;;;19.79;45.10
73455;BME280;61690;51.824;6.306;2023-05-17T12:46:20;102636.75;;;19.77;44.68
73455;BME280;61690;51.824;6.306;2023-05-17T12:48:47;102627.97;;;19.76;45.21
73455;BME280;61690;51.824;6.306;2023-05-17T12:51:14;102635.91;;;19.76;44.71
73455;BME280;61690;51.824;6.306;2023-05-17T12:53:42;102636.75;;;19.77;44.74
73455;BME280;61690;51.824;6.306;2023-05-17T12:56:08;102641.19;;;19.76;44.69
73455;BME280;61690;51.824;6.306;2023-05-17T12:58:41;102627.97;;;19.76;44.76
73455;BME280;61690;51.824;6.306;2023-05-17T13:01:07;102631.56;;;19.75;44.99
73455;BME280;61690;51.824;6.306;2023-05-17T13:03:34;102630.28;;;19.84;44.78